createdAt,value
2019-03-12T00:02:09.052Z,84.53
2019-03-12T00:04:37.843Z,84.26
2019-03-12T00:07:06.628Z,85.02
2019-03-12T00:09:35.438Z,84.50
2019-03-12T00:12:04.231Z,84.68
2019-03-12T00:14:33.144Z,84.87
2019-03-12T00:17:01.960Z,84.06
2019-03-12T00:19:30.940Z,84.52
2019-03-12T00:22:00.836Z,84.35
2019-03-12T00:24:30.547Z,85.04
2019-03-12T00:26:59.358Z,84.26
2019-03-12T00:29:28.536Z,84.46
2019-03-12T00:31:58.127Z,84.59
2019-03-12T00:34:27.966Z,85.04
2019-03-12T00:36:57.869Z,85.14
2019-03-12T00:39:27.492Z,84.98
2019-03-12T00:41:56.777Z,85.18
2019-03-12T00:44:25.892Z,84.69
2019-03-12T00:46:54.707Z,85.14
2019-03-12T00:49:24.285Z,85.01
2019-03-12T00:51:53.634Z,84.85
2019-03-12T00:54:23.539Z,85.21
2019-03-12T00:56:53.237Z,84.58
2019-03-12T00:59:22.444Z,85.51
2019-03-12T01:01:52.424Z,85.24
2019-03-12T01:04:21.933Z,85.28
2019-03-12T01:06:51.169Z,84.75
2019-03-12T01:09:20.322Z,84.76
2019-03-12T01:11:50.247Z,85.73
2019-03-12T01:14:19.052Z,85.65
2019-03-12T01:16:48.194Z,85.99
2019-03-12T01:19:17.021Z,85.98
2019-03-12T01:21:45.882Z,84.95
2019-03-12T01:24:15.162Z,84.90
2019-03-12T01:26:44.047Z,85.88
2019-03-12T01:29:13.164Z,85.74
2019-03-12T01:31:41.967Z,86.28
2019-03-12T01:34:11.149Z,85.69
2019-03-12T01:36:40.329Z,86.00
2019-03-12T01:39:09.569Z,86.09
2019-03-12T01:41:39.049Z,85.24
2019-03-12T01:44:07.853Z,85.15
2019-03-12T01:46:36.658Z,85.71
2019-03-12T01:49:05.987Z,85.35
2019-03-12T01:51:34.775Z,85.25
2019-03-12T01:54:03.937Z,85.60
2019-03-12T01:56:33.173Z,85.07
2019-03-12T01:59:03.082Z,84.59
2019-03-12T02:01:32.892Z,84.90
2019-03-12T02:04:02.835Z,84.26
2019-03-12T02:06:32.078Z,84.92
2019-03-12T02:09:00.911Z,84.72
2019-03-12T02:11:30.094Z,85.18
2019-03-12T02:13:59.299Z,85.30
2019-03-12T02:16:28.075Z,85.13
2019-03-12T02:18:57.284Z,85.00
2019-03-12T02:21:26.934Z,85.08
2019-03-12T02:23:56.034Z,84.90
2019-03-12T02:26:25.134Z,85.15
2019-03-12T02:28:53.939Z,85.11
2019-03-12T02:31:22.716Z,84.64
2019-03-12T02:33:51.878Z,84.72
2019-03-12T02:36:20.750Z,84.68
2019-03-12T02:38:49.667Z,84.72
2019-03-12T02:41:18.792Z,84.84
2019-03-12T02:43:47.594Z,84.99
2019-03-12T02:46:16.769Z,85.01
2019-03-12T02:48:45.546Z,84.78
2019-03-12T02:51:14.348Z,85.21
2019-03-12T02:53:43.901Z,84.94
2019-03-12T02:56:12.677Z,84.88
2019-03-12T02:58:41.467Z,84.77
2019-03-12T03:01:10.316Z,84.82
2019-03-12T03:03:39.426Z,84.39
2019-03-12T03:06:23.113Z,84.94
2019-03-12T03:08:51.975Z,85.00
2019-03-12T03:11:21.165Z,85.50
2019-03-12T03:13:50.526Z,85.53
2019-03-12T03:16:23.715Z,85.08
2019-03-12T03:18:50.898Z,85.29
2019-03-12T03:21:19.735Z,85.21
2019-03-12T03:23:48.596Z,85.08
2019-03-12T03:26:17.680Z,84.88
2019-03-12T03:28:46.835Z,84.81
2019-03-12T03:31:16.062Z,85.11
2019-03-12T03:33:45.175Z,85.28
2019-03-12T03:36:13.978Z,85.76
2019-03-12T03:38:42.765Z,86.05
2019-03-12T03:41:11.628Z,85.91
2019-03-12T03:43:40.892Z,86.86
2019-03-12T03:46:10.544Z,86.46
2019-03-12T03:48:39.787Z,87.77
2019-03-12T03:51:08.605Z,87.92
2019-03-12T03:53:37.417Z,88.20
2019-03-12T03:56:06.268Z,88.27
2019-03-12T03:58:35.840Z,88.72
2019-03-12T04:01:05.486Z,88.55
2019-03-12T04:03:34.237Z,89.70
2019-03-12T04:06:03.152Z,89.52
2019-03-12T04:08:32.331Z,90.21
2019-03-12T04:11:01.112Z,90.43
2019-03-12T04:13:30.770Z,90.17
2019-03-12T04:15:59.595Z,89.70
2019-03-12T04:18:28.413Z,89.04
2019-03-12T04:20:57.269Z,88.79
2019-03-12T04:23:26.232Z,88.89
2019-03-12T04:25:55.437Z,89.61
2019-03-12T04:28:24.255Z,89.43
2019-03-12T04:30:53.045Z,89.90
2019-03-12T04:34:18.762Z,89.94
2019-03-12T04:36:49.086Z,89.61
2019-03-12T04:39:17.981Z,89.29
2019-03-12T04:41:46.777Z,89.83
2019-03-12T04:44:15.632Z,89.71
2019-03-12T04:46:44.450Z,89.53
2019-03-12T04:49:13.277Z,89.51
2019-03-12T04:51:42.141Z,89.61
2019-03-12T04:54:10.936Z,89.48
2019-03-12T04:56:39.818Z,89.66
2019-03-12T04:59:08.719Z,89.72
2019-03-12T05:01:37.929Z,89.49
2019-03-12T05:04:06.800Z,89.50
2019-03-12T05:06:36.034Z,89.23
2019-03-12T05:09:08.326Z,89.48
2019-03-12T05:11:37.614Z,89.63
2019-03-12T05:14:42.773Z,89.53
2019-03-12T05:17:17.135Z,89.58
2019-03-12T05:19:47.281Z,90.03
2019-03-12T05:22:18.159Z,90.26
2019-03-12T05:24:46.979Z,90.58
2019-03-12T05:27:15.863Z,90.54
2019-03-12T05:29:44.776Z,90.64
2019-03-12T05:32:13.654Z,90.71
2019-03-12T05:34:42.444Z,90.95
2019-03-12T05:37:11.257Z,90.80
2019-03-12T05:39:40.072Z,90.79
2019-03-12T05:42:09.018Z,90.73
2019-03-12T05:44:37.913Z,90.73
2019-03-12T05:47:08.301Z,90.76
2019-03-12T05:49:37.639Z,90.81
2019-03-12T05:52:06.620Z,90.79
2019-03-12T05:54:35.407Z,90.75
2019-03-12T05:57:04.563Z,90.83
2019-03-12T05:59:33.440Z,90.96
2019-03-12T06:02:02.617Z,90.90
2019-03-12T06:04:31.768Z,90.87
2019-03-12T06:07:00.558Z,90.64
2019-03-12T06:09:30.503Z,90.21
2019-03-12T06:12:00.049Z,90.23
2019-03-12T06:14:28.953Z,89.77
2019-03-12T06:16:57.737Z,89.70
2019-03-12T06:19:28.836Z,89.32
2019-03-12T06:21:57.718Z,89.00
2019-03-12T06:24:26.543Z,88.55
2019-03-12T06:26:55.391Z,88.18
2019-03-12T06:29:24.180Z,88.22
2019-03-12T06:32:10.620Z,88.11
2019-03-12T06:34:49.825Z,87.51
2019-03-12T06:37:26.429Z,86.96
2019-03-12T06:40:29.893Z,86.19
2019-03-12T06:43:21.310Z,85.61
2019-03-12T06:46:11.939Z,85.03
2019-03-12T06:48:47.659Z,84.83
2019-03-12T06:51:40.568Z,84.15
2019-03-12T06:54:15.347Z,85.00
2019-03-12T06:57:09.297Z,84.61
2019-03-12T06:59:57.104Z,84.34
2019-03-12T07:02:48.326Z,84.93
2019-03-12T07:05:36.057Z,83.50
2019-03-12T07:08:27.035Z,83.25
2019-03-12T07:11:32.598Z,82.78
2019-03-12T07:14:31.080Z,81.79
2019-03-12T07:17:10.856Z,81.01
2019-03-12T07:20:13.336Z,79.08
2019-03-12T07:22:58.497Z,78.50
2019-03-12T07:25:50.893Z,77.02
2019-03-12T07:28:33.149Z,74.55
2019-03-12T07:31:08.281Z,73.16
2019-03-12T07:33:53.764Z,72.02
2019-03-12T07:36:44.593Z,72.57
2019-03-12T07:39:32.164Z,72.14
2019-03-12T07:42:23.118Z,71.50
2019-03-12T07:45:05.169Z,70.02
2019-03-12T07:47:42.167Z,70.11
2019-03-12T07:50:35.330Z,70.70
2019-03-12T07:53:29.910Z,70.68
2019-03-12T07:56:21.842Z,69.77
2019-03-12T07:58:57.912Z,70.36
2019-03-12T08:01:41.684Z,69.77
2019-03-12T08:04:21.182Z,69.13
2019-03-12T08:07:04.127Z,70.24
2019-03-12T08:10:01.209Z,70.00
2019-03-12T08:13:04.100Z,70.17
2019-03-12T08:15:50.514Z,68.29
2019-03-12T08:18:37.216Z,68.57
2019-03-12T08:21:40.509Z,68.67
2019-03-12T08:24:24.501Z,67.96
2019-03-12T08:27:05.186Z,66.94
2019-03-12T08:29:43.712Z,67.66
2019-03-12T08:32:19.248Z,66.82
2019-03-12T08:34:54.372Z,65.24
2019-03-12T08:37:32.823Z,64.24
2019-03-12T08:40:27.111Z,63.72
2019-03-12T08:43:13.790Z,62.91
2019-03-12T08:46:00.582Z,62.39
2019-03-12T08:48:39.325Z,61.05
2019-03-12T08:51:30.058Z,62.41
2019-03-12T08:54:08.644Z,60.89
2019-03-12T08:56:59.475Z,60.81
2019-03-12T08:59:53.301Z,59.90
2019-03-12T09:02:40.265Z,61.71
2019-03-12T09:05:28.237Z,61.69
2019-03-12T09:08:17.370Z,61.07
2019-03-12T09:11:11.030Z,61.96
2019-03-12T09:13:55.194Z,62.99
2019-03-12T09:16:55.290Z,63.41
2019-03-12T09:19:37.602Z,64.01
2019-03-12T09:22:25.073Z,63.51
2019-03-12T09:25:12.154Z,63.04
2019-03-12T09:28:21.538Z,62.85
2019-03-12T09:31:09.937Z,62.88
2019-03-12T09:33:54.710Z,61.49
2019-03-12T09:36:48.540Z,61.22
2019-03-12T09:39:26.519Z,62.37
2019-03-12T09:42:02.340Z,62.43
2019-03-12T09:44:56.416Z,60.27
2019-03-12T09:47:31.283Z,61.07
2019-03-12T09:50:19.193Z,63.25
2019-03-12T09:53:03.068Z,62.98
2019-03-12T09:55:41.758Z,61.44
2019-03-12T09:58:20.099Z,61.55
2019-03-12T10:01:08.030Z,60.84
2019-03-12T10:03:58.958Z,60.96
2019-03-12T10:06:52.712Z,60.33
2019-03-12T10:09:37.993Z,58.04
2019-03-12T10:12:17.122Z,58.74
2019-03-12T10:14:56.641Z,59.47
2019-03-12T10:17:34.279Z,60.33
2019-03-12T10:20:21.498Z,60.08
2019-03-12T10:23:19.052Z,59.15
2019-03-12T10:26:06.866Z,59.13
2019-03-12T10:28:53.573Z,59.88
2019-03-12T10:31:33.213Z,60.81
2019-03-12T10:34:29.830Z,60.41
2019-03-12T10:37:12.184Z,61.07
2019-03-12T10:40:24.965Z,59.54
2019-03-12T10:43:21.295Z,58.74
2019-03-12T10:46:09.295Z,59.02
2019-03-12T10:48:38.487Z,59.73
2019-03-12T10:51:08.146Z,60.62
2019-03-12T10:53:40.234Z,59.16
2019-03-12T10:56:09.033Z,59.55
2019-03-12T10:58:37.908Z,59.52
2019-03-12T11:01:06.873Z,58.88
2019-03-12T11:03:35.737Z,57.55
2019-03-12T11:06:04.713Z,57.25
2019-03-12T11:08:33.598Z,56.15
2019-03-12T11:11:02.468Z,56.97
2019-03-12T11:13:31.360Z,55.81
2019-03-12T11:16:00.144Z,56.45
2019-03-12T11:18:29.007Z,56.77
2019-03-12T11:21:04.427Z,55.12
2019-03-12T11:23:33.813Z,54.68
2019-03-12T11:26:02.702Z,55.71
2019-03-12T11:28:31.798Z,54.79
2019-03-12T11:31:00.622Z,53.67
2019-03-12T11:33:29.441Z,53.70
2019-03-12T11:35:58.247Z,53.24
2019-03-12T11:38:27.146Z,56.90
2019-03-12T11:40:55.981Z,55.51
2019-03-12T11:43:24.869Z,55.76
2019-03-12T11:45:53.650Z,54.97
2019-03-12T11:48:22.822Z,55.47
2019-03-12T11:50:51.674Z,54.82
2019-03-12T11:53:20.489Z,54.59
2019-03-12T11:55:49.291Z,55.45
2019-03-12T11:58:18.170Z,56.29
2019-03-12T12:01:01.785Z,56.14
2019-03-12T12:03:30.630Z,57.08
2019-03-12T12:05:59.808Z,57.38
2019-03-12T12:08:28.748Z,56.14
2019-03-12T12:10:57.602Z,57.21
2019-03-12T12:13:26.425Z,56.73
2019-03-12T12:15:55.280Z,56.59
2019-03-12T12:18:24.156Z,57.41
2019-03-12T12:20:53.033Z,57.17
2019-03-12T12:23:21.821Z,56.95
2019-03-12T12:25:54.523Z,56.04
2019-03-12T12:28:23.426Z,55.65
2019-03-12T12:30:52.355Z,56.05
2019-03-12T12:33:21.155Z,55.20
2019-03-12T12:35:49.971Z,54.06
2019-03-12T12:38:18.851Z,54.42
2019-03-12T12:40:47.628Z,53.30
2019-03-12T12:43:16.502Z,53.69
2019-03-12T12:45:45.823Z,54.75
2019-03-12T12:48:14.681Z,54.70
2019-03-12T12:50:43.583Z,53.82
2019-03-12T12:53:12.459Z,52.39
2019-03-12T12:55:41.268Z,52.69
2019-03-12T12:58:10.240Z,53.39
2019-03-12T13:00:39.147Z,53.25
2019-03-12T13:03:07.979Z,53.20
2019-03-12T13:05:36.781Z,52.49
2019-03-12T13:08:06.181Z,52.76
2019-03-12T13:10:38.031Z,52.10
2019-03-12T13:13:13.062Z,52.23
2019-03-12T13:15:42.511Z,52.75
2019-03-12T13:18:11.359Z,53.33
2019-03-12T13:20:40.289Z,53.22
2019-03-12T13:23:09.175Z,54.07
2019-03-12T13:25:38.056Z,54.35
2019-03-12T13:28:06.960Z,54.66
2019-03-12T13:30:35.932Z,54.69
2019-03-12T13:33:05.964Z,53.44
2019-03-12T13:35:34.890Z,53.14
2019-03-12T13:38:03.792Z,52.24
2019-03-12T13:40:32.802Z,52.60
2019-03-12T13:43:01.907Z,52.34
2019-03-12T13:45:31.282Z,51.51
2019-03-12T13:48:00.424Z,51.35
2019-03-12T13:50:29.569Z,51.19
2019-03-12T13:52:58.479Z,50.47
2019-03-12T13:55:27.393Z,50.12
2019-03-12T13:57:56.214Z,49.42
2019-03-12T14:00:25.565Z,49.31
2019-03-12T14:02:54.487Z,49.03
2019-03-12T14:05:23.415Z,49.09
2019-03-12T14:07:52.737Z,49.21
2019-03-12T14:10:22.025Z,49.05
2019-03-12T14:12:51.489Z,49.40
2019-03-12T14:15:28.668Z,48.74
2019-03-12T14:17:58.933Z,48.55
2019-03-12T14:21:01.082Z,48.35
2019-03-12T14:23:41.505Z,47.75
2019-03-12T14:26:10.741Z,47.13
2019-03-12T14:28:40.553Z,47.00
2019-03-12T14:31:09.576Z,47.25
2019-03-12T14:33:38.517Z,46.67
2019-03-12T14:36:07.547Z,47.17
2019-03-12T14:38:36.732Z,48.16
2019-03-12T14:41:05.729Z,48.06
2019-03-12T14:43:34.502Z,48.15
2019-03-12T14:46:03.456Z,46.69
2019-03-12T14:48:43.800Z,47.21
2019-03-12T14:51:50.003Z,47.02
2019-03-12T14:54:18.932Z,47.02
2019-03-12T14:56:47.891Z,47.32
2019-03-12T14:59:16.745Z,46.43
2019-03-12T15:01:45.681Z,46.54
2019-03-12T15:04:15.249Z,46.56
2019-03-12T15:06:44.293Z,45.90
2019-03-12T15:09:14.690Z,45.24
2019-03-12T15:11:43.626Z,45.95
2019-03-12T15:14:12.487Z,45.19
2019-03-12T15:16:41.808Z,45.23
2019-03-12T15:19:10.659Z,45.75
2019-03-12T15:21:39.614Z,45.27
2019-03-12T15:24:08.421Z,45.82
2019-03-12T15:26:37.337Z,45.29
2019-03-12T15:29:06.314Z,45.35
2019-03-12T15:31:35.279Z,45.43
2019-03-12T15:34:04.218Z,45.00
2019-03-12T15:36:33.025Z,44.69
2019-03-12T15:39:01.807Z,44.98
2019-03-12T15:41:31.399Z,44.66
2019-03-12T15:44:00.195Z,44.32
2019-03-12T15:46:29.400Z,44.38
2019-03-12T15:48:58.203Z,44.85
2019-03-12T15:51:27.068Z,45.14
2019-03-12T15:53:56.749Z,45.59
2019-03-12T15:56:25.853Z,45.38
2019-03-12T15:58:54.989Z,46.01
2019-03-12T16:01:23.997Z,45.84
2019-03-12T16:03:54.155Z,45.41
2019-03-12T16:06:26.288Z,46.26
2019-03-12T16:08:54.584Z,47.07
2019-03-12T16:11:23.373Z,46.27
2019-03-12T16:13:52.289Z,47.50
2019-03-12T16:16:22.457Z,46.62
2019-03-12T16:18:51.433Z,46.84
2019-03-12T16:21:23.793Z,47.39
2019-03-12T16:23:54.336Z,47.24
2019-03-12T16:26:23.494Z,47.76
2019-03-12T16:28:52.894Z,47.18
2019-03-12T16:31:22.124Z,47.93
2019-03-12T16:33:50.978Z,47.94
2019-03-12T16:36:19.763Z,47.92
2019-03-12T16:38:48.716Z,48.52
2019-03-12T16:41:17.631Z,48.63
2019-03-12T16:43:46.416Z,48.71
2019-03-12T16:46:15.262Z,49.17
2019-03-12T16:48:44.114Z,49.14
2019-03-12T16:51:12.991Z,48.26
2019-03-12T16:53:41.778Z,48.73
2019-03-12T16:56:10.643Z,48.56
2019-03-12T16:58:39.422Z,48.52
2019-03-12T17:01:09.214Z,48.98
2019-03-12T17:03:39.634Z,48.03
2019-03-12T17:06:09.238Z,47.86
2019-03-12T17:08:38.404Z,48.68
2019-03-12T17:11:07.728Z,49.41
2019-03-12T17:13:36.868Z,49.58
2019-03-12T17:16:06.132Z,49.43
2019-03-12T17:18:35.301Z,50.04
2019-03-12T17:21:04.125Z,50.12
2019-03-12T17:23:33.216Z,49.43
2019-03-12T17:26:02.407Z,49.90
2019-03-12T17:28:31.228Z,50.67
2019-03-12T17:31:00.110Z,50.54
2019-03-12T17:33:28.901Z,49.87
2019-03-12T17:35:57.729Z,50.05
2019-03-12T17:38:26.851Z,49.35
2019-03-12T17:40:55.655Z,49.60
2019-03-12T17:43:24.468Z,49.55
2019-03-12T17:45:53.333Z,49.41
2019-03-12T17:48:22.110Z,49.13
2019-03-12T17:50:50.932Z,48.71
2019-03-12T17:53:19.693Z,49.44
2019-03-12T17:55:48.575Z,48.94
2019-03-12T17:58:17.469Z,48.93
2019-03-12T18:00:46.706Z,48.15
2019-03-12T18:03:16.173Z,48.39
2019-03-12T18:05:45.395Z,49.25
2019-03-12T18:08:14.975Z,48.83
2019-03-12T18:10:44.165Z,49.12
2019-03-12T18:13:13.326Z,48.40
2019-03-12T18:15:42.508Z,47.92
2019-03-12T18:18:12.013Z,47.57
2019-03-12T18:20:43.959Z,47.65
2019-03-12T18:23:12.214Z,46.96
2019-03-12T18:25:41.472Z,46.73
2019-03-12T18:28:10.629Z,46.13
2019-03-12T18:30:40.101Z,46.32
2019-03-12T18:33:09.563Z,46.31
2019-03-12T18:35:39.070Z,46.97
2019-03-12T18:38:08.667Z,46.18
2019-03-12T18:40:37.847Z,46.27
2019-03-12T18:43:07.256Z,45.04
2019-03-12T18:45:36.638Z,45.59
2019-03-12T18:48:05.776Z,45.29
2019-03-12T18:50:35.071Z,45.11
2019-03-12T18:53:04.963Z,44.72
2019-03-12T18:56:11.331Z,45.25
2019-03-12T18:58:40.542Z,45.05
2019-03-12T19:01:15.105Z,44.99
2019-03-12T19:03:44.435Z,44.57
2019-03-12T19:06:13.775Z,44.43
2019-03-12T19:08:48.010Z,43.97
2019-03-12T19:11:15.123Z,43.37
2019-03-12T19:13:44.881Z,43.95
2019-03-12T19:16:14.177Z,43.61
2019-03-12T19:18:43.457Z,43.14
2019-03-12T19:21:12.317Z,43.50
2019-03-12T19:23:41.950Z,42.91
2019-03-12T19:26:12.082Z,42.95
2019-03-12T19:28:41.241Z,42.72
2019-03-12T19:31:24.293Z,42.48
2019-03-12T19:33:54.570Z,42.41
2019-03-12T19:36:23.614Z,42.09
2019-03-12T19:38:52.478Z,41.60
2019-03-12T19:41:22.007Z,41.25
2019-03-12T19:43:51.536Z,41.51
2019-03-12T19:46:21.247Z,41.30
2019-03-12T19:48:50.520Z,41.28
2019-03-12T19:51:19.766Z,41.94
2019-03-12T19:53:48.637Z,41.30
2019-03-12T19:56:17.630Z,41.56
2019-03-12T19:58:46.734Z,41.64
2019-03-12T20:01:16.186Z,41.45
2019-03-12T20:03:45.059Z,40.93
2019-03-12T20:06:15.313Z,41.01
2019-03-12T20:08:44.833Z,41.20
2019-03-12T20:11:41.033Z,41.10
2019-03-12T20:14:49.414Z,40.90
2019-03-12T20:18:23.425Z,41.10
2019-03-12T20:22:03.698Z,40.96
2019-03-12T20:25:07.481Z,40.26
2019-03-12T20:28:20.205Z,40.55
2019-03-12T20:31:15.808Z,40.56
2019-03-12T20:34:21.479Z,40.72
2019-03-12T20:37:42.081Z,40.15
2019-03-12T20:41:16.909Z,39.88
2019-03-12T20:44:07.102Z,40.05
2019-03-12T20:47:09.749Z,40.60
2019-03-12T20:50:17.907Z,39.92
2019-03-12T20:53:23.029Z,39.62
2019-03-12T20:56:47.535Z,39.70
2019-03-12T20:59:33.404Z,39.15
2019-03-12T21:02:43.649Z,39.98
2019-03-12T21:05:49.541Z,40.36
2019-03-12T21:08:55.838Z,41.66
2019-03-12T21:12:33.079Z,42.53
2019-03-12T21:15:52.837Z,42.41
2019-03-12T21:18:53.038Z,43.30
2019-03-12T21:22:03.604Z,43.33
2019-03-12T21:24:49.118Z,43.44
2019-03-12T21:27:24.403Z,43.20
2019-03-12T21:29:52.689Z,43.23
2019-03-12T21:32:21.665Z,42.97
2019-03-12T21:34:51.196Z,43.22
2019-03-12T21:37:20.282Z,43.43
2019-03-12T21:39:55.879Z,43.26
2019-03-12T21:42:20.879Z,43.67
2019-03-12T21:44:50.048Z,44.88
2019-03-12T21:47:19.313Z,47.74
2019-03-12T21:49:48.197Z,47.56
2019-03-12T21:52:18.154Z,49.11
2019-03-12T21:54:48.173Z,49.02
2019-03-12T21:57:16.966Z,51.63
2019-03-12T21:59:45.791Z,52.81
2019-03-12T22:02:15.199Z,53.65
2019-03-12T22:04:43.974Z,51.71
2019-03-12T22:07:12.881Z,54.46
2019-03-12T22:09:41.684Z,55.22
2019-03-12T22:12:10.468Z,54.72
2019-03-12T22:14:39.375Z,53.81
2019-03-12T22:17:08.214Z,53.54
2019-03-12T22:19:37.386Z,52.27
2019-03-12T22:22:24.547Z,53.57
2019-03-12T22:24:54.131Z,54.12
2019-03-12T22:27:22.895Z,53.04
2019-03-12T22:29:51.745Z,53.62
2019-03-12T22:32:20.542Z,52.73
2019-03-12T22:34:49.433Z,53.00
2019-03-12T22:37:18.361Z,52.58
2019-03-12T22:39:47.275Z,53.01
2019-03-12T22:42:16.040Z,51.66
2019-03-12T22:44:45.149Z,52.28
2019-03-12T22:47:13.951Z,52.01
2019-03-12T22:49:43.149Z,52.32
2019-03-12T22:52:12.951Z,52.48
2019-03-12T22:54:41.854Z,51.77
2019-03-12T22:57:11.185Z,52.29
2019-03-12T22:59:39.995Z,52.07
2019-03-12T23:02:09.580Z,51.94
2019-03-12T23:04:38.754Z,51.86
2019-03-12T23:07:07.698Z,51.47
2019-03-12T23:09:36.974Z,51.06
2019-03-12T23:12:06.455Z,51.19
2019-03-12T23:14:35.328Z,52.43
2019-03-12T23:17:04.648Z,53.13
2019-03-12T23:19:34.284Z,57.80
2019-03-12T23:22:03.465Z,63.14
2019-03-12T23:24:32.320Z,68.29
2019-03-12T23:27:01.128Z,72.08
2019-03-12T23:29:30.347Z,74.12
2019-03-12T23:31:59.304Z,73.88
2019-03-12T23:34:28.089Z,73.91
2019-03-12T23:36:57.026Z,75.31
2019-03-12T23:39:28.195Z,75.99
2019-03-12T23:41:56.972Z,77.40
2019-03-12T23:45:09.677Z,77.84
2019-03-12T23:47:38.970Z,77.58
2019-03-12T23:50:09.604Z,78.73
2019-03-12T23:52:38.931Z,79.15
2019-03-12T23:55:08.700Z,79.41
2019-03-12T23:57:43.501Z,79.75
